Latest Weather Observations for Nullo Mountain

IDN60801

Issued at 1:03 pm EST Saturday 27 August 2016 (issued every 30 minutes, with the page automatically refreshed every 10 minutes)

About weather observations | Map of weather stations | Latest weather observations for NSW | Other Formats
Station Details ID: 062100 Name: NULLO MOUNTAIN AWS Lat: -32.72 Lon: 150.23 Height: 1130.0 m
Data from the previous 72 hours. | See also: Recent months at Nullo Mountain
Date/Time
EST
Temp
°C
App
Temp
°C
Dew
Point
°C
Rel
Hum
%
Delta-T
°C
Wind Press
QNH
hPa
Press
MSL
hPa
Rain since
9am
mm
Dir  Spd
km/h
Gust
km/h
Spd
kts
Gust
kts
27/01:00pm 9.5 6.6 1.2 56 3.7 WSW 6 11 3 6 - - 0.0
27/12:30pm 9.8 6.2 0.9 54 3.9 NW 9 17 5 9 - - 0.0
27/12:00pm 9.4 6.5 1.3 57 3.6 WSW 6 11 3 6 - - 0.0
27/11:30am 7.8 4.8 0.5 60 3.1 SSW 6 9 3 5 - - 0.0
27/11:00am 8.9 5.9 2.3 63 3.0 WNW 7 13 4 7 - - 0.0
27/10:30am 8.4 5.7 2.4 66 2.7 W 6 9 3 5 - - 0.0
27/10:00am 7.6 4.7 1.2 64 2.8 WSW 6 9 3 5 - - 0.0
27/09:30am 6.8 3.8 0.5 64 2.7 E 6 9 3 5 - - 0.0
27/09:00am 6.4 4.0 1.9 73 2.0 SE 4 7 2 4 - - 0.0
27/08:30am 5.8 2.9 1.3 73 1.9 SE 6 9 3 5 - - 0.0
27/08:00am 4.6 1.5 1.1 78 1.5 SE 7 11 4 6 - - 0.0
27/07:30am 3.3 0.4 1.3 87 0.8 SE 6 7 3 4 - - 0.0
27/07:00am 2.0 -0.7 0.4 89 0.6 ESE 4 6 2 3 - - 0.0
27/06:30am 1.6 -1.5 0.3 91 0.5 SE 6 7 3 4 - - 0.0
27/06:00am 1.9 -1.3 0.9 93 0.4 S 7 11 4 6 - - 0.0
27/05:30am 1.5 -1.5 0.8 95 0.3 SSE 6 11 3 6 - - 0.0
27/05:00am 1.8 -1.2 0.9 94 0.4 SE 6 7 3 4 - - 0.0
27/04:30am 1.3 -1.7 0.6 95 0.3 SSE 6 9 3 5 - - 0.0
27/04:00am 1.3 -1.7 0.6 95 0.3 SE 6 9 3 5 - - 0.0
27/03:30am 1.6 -1.4 0.6 93 0.4 SE 6 7 3 4 - - 0.0
27/03:00am 1.6 -1.6 0.6 93 0.4 SSE 7 11 4 6 - - 0.0
27/02:30am 0.7 -2.5 -0.4 92 0.4 S 6 7 3 4 - - 0.0
27/02:00am 0.3 -2.5 -0.7 93 0.4 SSE 4 6 2 3 - - 0.0
27/01:30am 0.9 -2.3 -0.2 92 0.4 SE 6 7 3 4 - - 0.0
27/01:00am 0.9 -2.3 -0.4 91 0.5 SE 6 9 3 5 - - 0.0
27/12:30am 0.6 -2.6 -0.7 91 0.5 SE 6 9 3 5 - - 0.0
27/12:00am 1.4 -1.8 -0.7 86 0.8 SE 6 7 3 4 - - 0.0
 
Date/Time
EST
Temp
°C
App
Temp
°C
Dew
Point
°C
Rel
Hum
%
Delta-T
°C
Wind Press
QNH
hPa
Press
MSL
hPa
Rain since
9am
mm
Dir  Spd
km/h
Gust
km/h
Spd
kts
Gust
kts
26/11:30pm 1.7 -1.4 -0.1 88 0.7 SE 6 7 3 4 - - 0.0
26/11:00pm 1.7 -1.4 0.1 89 0.6 SE 6 6 3 3 - - 0.0
26/10:30pm 1.1 -1.7 -0.1 92 0.5 SE 4 4 2 2 - - 0.0
26/10:00pm 1.2 -1.6 -0.6 88 0.7 SE 4 4 2 2 - - 0.0
26/09:30pm 1.2 -1.6 -0.7 87 0.7 ESE 4 6 2 3 - - 0.0
26/09:00pm 2.3 0.0 0.4 87 0.8 ESE 2 4 1 2 - - 0.0
26/08:30pm 2.2 -1.0 -0.5 82 1.1 ESE 6 7 3 4 - - 0.0
26/08:00pm 3.0 -0.2 -0.3 79 1.3 ESE 6 6 3 3 - - 0.0
26/07:30pm 4.0 1.7 0.7 79 1.4 E 2 4 1 2 - - 0.0
26/07:00pm 4.4 2.6 1.1 79 1.4 CALM 0 0 0 0 - - 0.0
26/06:30pm 4.3 2.4 0.6 77 1.5 CALM 0 0 0 0 - - 0.0
26/06:00pm 4.4 1.7 0.0 73 1.8 E 4 6 2 3 - - 0.0
26/05:30pm 4.8 2.5 0.2 72 1.9 ESE 2 4 1 2 - - 0.0
26/05:00pm 5.9 3.2 0.3 67 2.3 ESE 4 6 2 3 - - 0.0
26/04:30pm 6.5 3.7 -0.5 61 2.9 SSE 4 6 2 3 - - 0.0
26/04:00pm 7.1 3.6 -1.1 56 3.4 SSE 7 9 4 5 - - 0.0
26/03:30pm 7.2 3.5 -2.5 50 3.8 SSE 7 13 4 7 - - 0.0
26/03:00pm 7.2 3.3 -1.2 55 3.4 S 9 15 5 8 - - 0.0
26/02:30pm 7.4 3.6 -1.0 55 3.5 S 9 19 5 10 - - 0.0
26/02:00pm 6.4 2.8 -2.0 55 3.3 SSW 7 17 4 9 - - 0.0
26/01:30pm 7.9 4.1 -0.8 54 3.6 S 9 17 5 9 - - 0.0
26/01:00pm 6.6 3.0 -2.3 53 3.5 SSE 7 17 4 9 - - 0.0
26/12:30pm 6.5 2.2 -1.6 56 3.2 SSE 11 19 6 10 - - 0.0
26/12:00pm 6.0 1.7 -1.4 59 3.0 SW 11 19 6 10 - - 0.0
26/11:30am 5.1 1.3 -0.9 65 2.4 SSE 9 15 5 8 - - 0.0
26/11:00am 5.0 1.5 -1.0 65 2.4 SE 7 13 4 7 - - 0.0
26/10:30am 4.0 0.6 -0.8 71 1.9 S 7 13 4 7 - - 0.0
26/10:00am 3.6 -0.5 0.0 77 1.5 SE 11 17 6 9 - - 0.0
26/09:30am 2.6 -1.5 -0.2 82 1.1 S 11 17 6 9 - - 0.0
26/09:00am 2.2 -2.2 0.3 87 0.8 SSE 13 19 7 10 - - 0.2
26/08:30am 1.3 -2.8 -0.3 89 0.6 S 11 19 6 10 - - 0.2
26/08:00am 0.6 -3.1 -0.1 95 0.3 SW 9 13 5 7 - - 0.2
26/07:30am -0.1 -3.4 -0.2 99 0.0 SSW 7 13 4 7 - - 0.0
26/07:00am -0.8 -2.9 -1.1 98 0.1 CALM 0 0 0 0 - - 0.0
26/06:30am -0.8 -2.9 -1.1 98 0.1 CALM 0 0 0 0 - - 0.0
26/06:00am -0.6 -2.7 -1.0 97 0.1 CALM 0 0 0 0 - - 0.0
26/05:30am -0.7 -2.8 -1.1 97 0.1 CALM 0 0 0 0 - - 0.0
26/05:00am -0.6 -2.7 -1.0 97 0.1 CALM 0 0 0 0 - - 0.0
26/04:30am -0.3 -2.4 -0.7 97 0.1 CALM 0 0 0 0 - - 0.0
26/04:00am -0.5 -4.3 -0.6 99 0.0 W 9 17 5 9 - - 0.0
26/03:30am -0.6 -3.8 -0.7 99 0.0 W 6 13 3 7 - - 0.0
26/03:00am -0.3 -3.5 -0.4 99 0.0 W 6 9 3 5 - - 0.0
26/02:30am -0.1 -3.3 -0.4 98 0.1 WSW 6 13 3 7 - - 0.0
26/02:00am 0.2 -3.0 -0.4 96 0.2 W 6 9 3 5 - - 0.0
26/01:30am 0.6 -2.5 0.0 96 0.2 W 6 11 3 6 - - 0.0
26/01:00am 0.9 -2.8 -0.1 93 0.4 WSW 9 17 5 9 - - 0.0
26/12:30am 0.4 -3.4 -0.6 93 0.4 WSW 9 15 5 8 - - 0.0
26/12:00am 0.6 -2.8 -0.5 92 0.4 WSW 7 13 4 7 - - 0.0
 
Date/Time
EST
Temp
°C
App
Temp
°C
Dew
Point
°C
Rel
Hum
%
Delta-T
°C
Wind Press
QNH
hPa
Press
MSL
hPa
Rain since
9am
mm
Dir  Spd
km/h
Gust
km/h
Spd
kts
Gust
kts
25/11:30pm 0.7 -2.7 -0.7 90 0.5 WSW 7 13 4 7 - - 0.0
25/11:00pm 1.2 -2.1 0.0 92 0.5 W 7 15 4 8 - - 0.0
25/10:30pm 1.3 -2.0 -0.2 90 0.6 W 7 13 4 7 - - 0.0
25/10:00pm 1.5 -2.2 -0.3 88 0.7 W 9 17 5 9 - - 0.0
25/09:30pm 2.1 -1.6 0.0 86 0.8 W 9 17 5 9 - - 0.0
25/09:00pm 2.4 -1.7 -0.2 83 1.0 W 11 17 6 9 - - 0.0
25/08:30pm 2.6 -1.9 -0.5 80 1.2 W 13 24 7 13 - - 0.0
25/08:00pm 2.8 -0.8 0.4 84 1.0 W 9 20 5 11 - - 0.0
25/07:30pm 2.8 -0.5 0.4 84 1.0 W 7 15 4 8 - - 0.0
25/07:00pm 2.9 -0.4 0.1 82 1.1 W 7 17 4 9 - - 0.0
25/06:30pm 3.4 0.2 0.8 83 1.1 WNW 7 11 4 6 - - 0.0
25/06:00pm 4.1 1.0 1.3 82 1.2 W 7 15 4 8 - - 0.0
25/05:30pm 4.1 1.0 1.1 81 1.3 WNW 7 17 4 9 - - 0.0
25/05:00pm 4.5 1.5 0.6 76 1.6 W 6 11 3 6 - - 0.0
25/04:30pm 5.0 0.5 0.0 70 2.1 W 13 20 7 11 - - 0.0
25/04:00pm 5.2 0.5 1.1 75 1.7 W 15 30 8 16 - - 0.0
25/03:30pm 5.5 1.3 1.6 76 1.7 W 13 22 7 12 - - 0.0
25/03:00pm 5.2 1.4 1.9 79 1.4 W 11 20 6 11 - - 0.0
25/02:30pm 5.0 1.2 1.7 79 1.4 W 11 22 6 12 - - 0.0
25/02:00pm 5.6 1.3 1.3 74 1.8 W 13 26 7 14 - - 0.0
25/01:30pm 5.7 2.1 2.7 81 1.3 W 11 22 6 12 - - 0.0
25/01:00pm 5.0 1.2 1.7 79 1.4 W 11 24 6 13 - - 0.0
25/12:30pm 4.7 0.6 2.2 84 1.1 W 13 26 7 14 - - 0.0
25/12:00pm 4.4 1.5 2.4 87 0.9 W 7 17 4 9 - - 0.0
25/11:30am 5.4 2.6 5.0 97 0.2 WNW 9 17 5 9 - - 0.0
25/11:00am 4.0 1.0 3.9 99 0.0 WSW 9 19 5 10 - - 0.0
25/10:30am 2.8 -0.4 2.8 100 0.0 W 9 17 5 9 - - 0.0
25/10:00am 3.0 -0.6 3.0 100 0.0 SW 11 17 6 9 - - 0.0
25/09:30am 2.7 -0.9 2.7 100 0.0 SW 11 17 6 9 - - 0.0
25/09:00am 2.5 -0.4 2.5 100 0.0 WSW 7 13 4 7 - - 8.0
25/08:30am 2.3 -1.0 2.3 100 0.0 SW 9 17 5 9 - - 8.0
25/08:00am 2.3 -0.7 2.3 100 0.0 SW 7 13 4 7 - - 8.0
25/07:30am 2.3 -0.7 2.3 100 0.0 SW 7 13 4 7 - - 8.0
25/07:00am 2.2 -0.6 2.2 100 0.0 SW 6 11 3 6 - - 8.0
25/06:30am 2.1 -0.9 2.1 100 0.0 SSW 7 11 4 6 - - 8.0
25/06:00am 2.2 -1.1 2.2 100 0.0 SW 9 13 5 7 - - 8.0
25/05:30am 2.3 -0.7 2.3 100 0.0 SW 7 13 4 7 - - 8.0
25/05:00am 2.3 -0.7 2.3 100 0.0 SW 7 19 4 10 - - 7.8
25/04:30am 2.3 -1.0 2.3 100 0.0 SW 9 15 5 8 - - 7.6
25/04:00am 2.4 -0.5 2.4 100 0.0 WSW 7 13 4 7 - - 7.6
25/03:30am 2.4 -0.5 2.4 100 0.0 SW 7 15 4 8 - - 7.6
25/03:00am 2.5 -0.8 2.5 100 0.0 SW 9 15 5 8 - - 7.6
25/02:30am 2.7 -0.2 2.7 100 0.0 W 7 11 4 6 - - 7.6
25/02:00am 2.9 0.2 2.9 100 0.0 WSW 6 9 3 5 - - 7.4
25/01:30am 3.0 0.3 2.9 99 0.0 SW 6 9 3 5 - - 7.4
25/01:00am 3.3 0.7 3.2 99 0.0 WSW 6 9 3 5 - - 7.4
25/12:30am 3.6 1.1 3.5 99 0.0 S 6 9 3 5 - - 7.4
25/12:00am 3.8 1.3 3.7 99 0.0 S 6 7 3 4 - - 7.4
 
Date/Time
EST
Temp
°C
App
Temp
°C
Dew
Point
°C
Rel
Hum
%
Delta-T
°C
Wind Press
QNH
hPa
Press
MSL
hPa
Rain since
9am
mm
Dir  Spd
km/h
Gust
km/h
Spd
kts
Gust
kts
24/11:30pm 3.6 1.1 3.5 99 0.0 S 6 11 3 6 - - 7.2
24/11:00pm 3.7 1.0 3.7 100 0.0 SW 7 11 4 6 - - 6.8
24/10:30pm 3.9 1.2 3.9 100 0.0 SW 7 11 4 6 - - 6.8
24/10:00pm 4.1 0.3 4.1 100 0.0 S 13 19 7 10 - - 6.8
24/09:30pm 4.6 0.9 4.6 100 0.0 S 13 20 7 11 - - 6.8
24/09:00pm 5.2 1.6 5.2 100 0.0 SSW 13 24 7 13 - - 6.8
24/08:30pm 5.8 3.5 5.8 100 0.0 SSW 7 13 4 7 - - 6.6
24/08:00pm 6.1 3.5 6.1 100 0.0 W 9 20 5 11 - - 6.6
24/07:30pm 6.4 4.4 6.4 100 0.0 W 6 11 3 6 - - 5.6
24/07:00pm 6.5 4.6 6.5 100 0.0 WNW 6 9 3 5 - - 5.2
24/06:30pm 6.5 4.9 6.5 100 0.0 WNW 4 7 2 4 - - 4.0
24/06:00pm 6.5 5.3 6.5 100 0.0 N 2 6 1 3 - - 2.8
24/05:30pm 6.4 4.4 6.4 100 0.0 NE 6 9 3 5 - - 2.4
24/05:00pm 6.7 5.2 6.7 100 0.0 ENE 4 11 2 6 - - 2.4
24/04:30pm 6.4 4.8 6.4 100 0.0 NNE 4 13 2 7 - - 1.6
24/04:00pm 6.6 4.7 6.6 100 0.0 ENE 6 9 3 5 - - 0.4
24/03:30pm 6.6 4.7 6.6 100 0.0 ENE 6 9 3 5 - - 0.2
24/03:00pm 6.5 3.6 6.5 100 0.0 E 11 19 6 10 - - 0.2
24/02:30pm 6.8 4.0 6.8 100 0.0 E 11 19 6 10 - - 0.2
24/02:00pm 6.5 3.2 6.5 100 0.0 ESE 13 19 7 10 - - 0.0
24/01:30pm 6.4 2.7 6.4 100 0.0 ESE 15 22 8 12 - - 0.0

Other Formats:

Comma delimited format used in spreadsheet applications
http://www.bom.gov.au/fwo/IDN60801/IDN60801.94754.axf

JavaScript Object Notation format (JSON) in row-major order
http://www.bom.gov.au/fwo/IDN60801/IDN60801.94754.json